Sao Tiago, Brazil
Current Conditions -  °F | °C
As of 8:00 PM on Wednesday 17 Dec 2014 (Local Time) from SBBQ Reporting Station
Few Clouds Few Clouds  
Wind Chill: 72°   Ceiling: Unl
Heat Index: 72°   Visibility: 6mi
Dew Point: 61°   Wind: 3mph
Humidity: 69%   Direction: 90°E
Pressure: 30.03"   Gusts: NA
Location:  20.91°S, 44.51°W
Report Text: SBBQ 172200Z 09003KT 9999 FEW047 22/16 Q1017
Loading
Personal Weather Stations






























Interactive Weather Map New forecast layout! Learn more

10-Day Weather Forecast

Advertisements
Track Severe Weather on mobile